createdAt,value
2018-04-13T00:02:01.951Z,17.20
2018-04-13T00:04:28.995Z,17.00
2018-04-13T00:06:55.285Z,17.00
2018-04-13T00:09:21.525Z,17.10
2018-04-13T00:11:47.826Z,17.10
2018-04-13T00:14:14.098Z,17.00
2018-04-13T00:16:40.389Z,17.00
2018-04-13T00:19:06.658Z,16.90
2018-04-13T00:21:34.052Z,16.80
2018-04-13T00:24:00.337Z,16.70
2018-04-13T00:26:26.655Z,16.60
2018-04-13T00:28:52.906Z,16.60
2018-04-13T00:31:19.175Z,16.50
2018-04-13T00:33:45.423Z,16.50
2018-04-13T00:36:11.956Z,16.40
2018-04-13T00:38:38.207Z,16.40
2018-04-13T00:41:04.481Z,16.40
2018-04-13T00:43:31.505Z,16.40
2018-04-13T00:45:57.818Z,16.40
2018-04-13T00:48:24.080Z,16.30
2018-04-13T00:50:51.142Z,16.30
2018-04-13T00:56:24.329Z,16.20
2018-04-13T00:58:50.630Z,16.20
2018-04-13T01:01:16.924Z,16.20
2018-04-13T01:03:43.229Z,16.10
2018-04-13T01:06:09.521Z,16.10
2018-04-13T01:08:35.847Z,16.10
2018-04-13T01:11:02.185Z,16.00
2018-04-13T01:13:28.458Z,16.00
2018-04-13T01:15:55.474Z,16.00
2018-04-13T01:18:21.806Z,15.90
2018-04-13T01:20:48.078Z,15.90
2018-04-13T01:23:14.382Z,15.90
2018-04-13T01:25:40.678Z,15.90
2018-04-13T01:28:06.947Z,15.90
2018-04-13T01:30:33.233Z,15.90
2018-04-13T01:32:59.571Z,15.90
2018-04-13T01:35:25.857Z,15.80
2018-04-13T01:37:52.123Z,15.80
2018-04-13T01:40:18.417Z,15.70
2018-04-13T01:42:45.442Z,15.70
2018-04-13T01:45:11.738Z,15.60
2018-04-13T01:47:38.057Z,15.60
2018-04-13T01:50:04.415Z,15.60
2018-04-13T01:52:30.732Z,15.50
2018-04-13T01:54:57.362Z,15.40
2018-04-13T01:57:23.692Z,15.40
2018-04-13T01:59:49.988Z,15.40
2018-04-13T02:02:16.318Z,15.40
2018-04-13T02:04:43.371Z,15.30
2018-04-13T02:07:09.759Z,15.20
2018-04-13T02:09:36.066Z,15.20
2018-04-13T02:12:02.311Z,15.10
2018-04-13T02:14:28.572Z,15.10
2018-04-13T02:16:54.855Z,15.10
2018-04-13T02:19:21.102Z,15.10
2018-04-13T02:21:47.407Z,15.00
2018-04-13T02:24:13.682Z,14.90
2018-04-13T02:26:39.979Z,14.90
2018-04-13T02:29:06.272Z,14.90
2018-04-13T02:31:33.293Z,15.00
2018-04-13T02:34:00.349Z,15.00
2018-04-13T02:36:27.461Z,15.00
2018-04-13T02:38:53.777Z,15.00
2018-04-13T02:41:20.056Z,15.10
2018-04-13T02:43:46.302Z,15.10
2018-04-13T02:46:13.341Z,15.10
2018-04-13T02:48:40.353Z,15.10
2018-04-13T02:51:06.654Z,15.10
2018-04-13T02:53:32.983Z,15.20
2018-04-13T02:55:59.248Z,15.20
2018-04-13T02:58:25.510Z,15.20
2018-04-13T03:00:51.811Z,15.10
2018-04-13T03:03:18.077Z,15.20
2018-04-13T03:05:45.145Z,15.10
2018-04-13T03:08:11.441Z,15.10
2018-04-13T03:10:38.444Z,15.20
2018-04-13T03:13:04.698Z,15.10
2018-04-13T03:15:30.980Z,15.20
2018-04-13T03:17:57.249Z,15.20
2018-04-13T03:20:23.686Z,15.20
2018-04-13T03:22:49.968Z,15.20
2018-04-13T03:25:16.230Z,15.20
2018-04-13T03:27:42.501Z,15.20
2018-04-13T03:30:09.606Z,15.40
2018-04-13T03:32:35.922Z,15.30
2018-04-13T03:35:02.214Z,15.30
2018-04-13T03:37:29.226Z,15.30
2018-04-13T03:39:55.521Z,15.30
2018-04-13T03:42:21.805Z,15.30
2018-04-13T03:44:48.150Z,15.30
2018-04-13T03:47:14.441Z,15.20
2018-04-13T03:49:40.758Z,15.30
2018-04-13T03:52:07.039Z,15.20
2018-04-13T03:54:33.434Z,15.30
2018-04-13T03:56:59.769Z,15.30
2018-04-13T03:59:26.031Z,15.30
2018-04-13T04:01:52.318Z,15.40
2018-04-13T04:04:18.641Z,15.60
2018-04-13T04:06:44.942Z,15.80
2018-04-13T04:09:11.958Z,15.60
2018-04-13T04:11:38.244Z,15.50
2018-04-13T04:14:04.514Z,15.50
2018-04-13T04:16:30.837Z,15.70
2018-04-13T04:18:57.173Z,15.70
2018-04-13T04:21:42.189Z,15.70
2018-04-13T04:24:27.707Z,15.90
2018-04-13T04:26:54.095Z,15.80
2018-04-13T04:29:21.152Z,16.00
2018-04-13T04:31:47.416Z,16.10
2018-04-13T04:34:13.701Z,16.10
2018-04-13T04:36:41.517Z,16.20
2018-04-13T04:39:07.836Z,16.20
2018-04-13T04:41:34.129Z,16.30
2018-04-13T04:44:01.144Z,16.20
2018-04-13T04:46:27.490Z,16.10
2018-04-13T04:48:54.517Z,16.10
2018-04-13T04:51:20.810Z,16.10
2018-04-13T04:53:47.127Z,16.10
2018-04-13T04:56:13.456Z,16.10
2018-04-13T04:58:39.743Z,16.20
2018-04-13T05:01:06.017Z,16.20
2018-04-13T05:03:33.052Z,16.40
2018-04-13T05:06:00.067Z,16.50
2018-04-13T05:08:26.358Z,16.50
2018-04-13T05:10:52.685Z,16.50
2018-04-13T05:13:18.992Z,16.70
2018-04-13T05:15:46.070Z,16.90
2018-04-13T05:18:12.332Z,16.90
2018-04-13T05:20:38.647Z,17.10
2018-04-13T05:23:04.931Z,17.20
2018-04-13T05:25:31.983Z,17.40
2018-04-13T05:27:59.066Z,17.40
2018-04-13T05:30:25.378Z,17.40
2018-04-13T05:32:51.718Z,17.50
2018-04-13T05:35:18.060Z,17.60
2018-04-13T05:37:45.027Z,17.70
2018-04-13T05:40:11.297Z,17.70
2018-04-13T05:42:38.378Z,17.80
2018-04-13T05:45:04.670Z,17.80
2018-04-13T05:47:31.666Z,17.90
2018-04-13T05:49:57.921Z,17.90
2018-04-13T05:52:24.195Z,17.90
2018-04-13T05:54:51.183Z,18.10
2018-04-13T05:57:17.468Z,18.00
2018-04-13T05:59:44.471Z,17.80
2018-04-13T06:02:10.751Z,17.70
2018-04-13T06:04:37.095Z,17.90
2018-04-13T06:07:03.421Z,18.00
2018-04-13T06:09:29.722Z,18.20
2018-04-13T06:11:56.764Z,18.20
2018-04-13T06:14:23.054Z,18.20
2018-04-13T06:16:49.341Z,18.30
2018-04-13T06:19:16.381Z,18.30
2018-04-13T06:21:43.406Z,18.50
2018-04-13T06:24:09.686Z,18.40
2018-04-13T06:26:35.944Z,18.40
2018-04-13T06:29:02.237Z,18.50
2018-04-13T06:31:28.533Z,18.50
2018-04-13T06:33:54.850Z,18.40
2018-04-13T06:36:21.116Z,18.40
2018-04-13T06:38:48.175Z,18.60
2018-04-13T06:41:14.473Z,18.60
2018-04-13T06:43:40.843Z,18.60
2018-04-13T06:46:07.061Z,18.50
2018-04-13T06:48:34.080Z,18.50
2018-04-13T06:51:00.401Z,18.50
2018-04-13T06:53:26.682Z,18.50
2018-04-13T06:55:52.999Z,18.50
2018-04-13T06:58:20.045Z,18.60
2018-04-13T07:00:46.383Z,18.60
2018-04-13T07:03:12.681Z,18.70
2018-04-13T07:05:38.960Z,18.50
2018-04-13T07:08:05.240Z,18.70
2018-04-13T07:10:31.530Z,18.90
2018-04-13T07:12:57.830Z,18.80
2018-04-13T07:15:24.848Z,19.10
2018-04-13T07:17:51.147Z,19.10
2018-04-13T07:20:17.451Z,19.10
2018-04-13T07:22:43.766Z,19.10
2018-04-13T07:25:10.799Z,18.70
2018-04-13T07:27:37.133Z,18.70
2018-04-13T07:30:04.158Z,18.50
2018-04-13T07:32:30.440Z,18.50
2018-04-13T07:34:56.722Z,18.50
2018-04-13T07:37:23.018Z,18.50
2018-04-13T07:39:49.335Z,18.50
2018-04-13T07:42:15.618Z,18.60
2018-04-13T07:44:41.901Z,18.80
2018-04-13T07:47:08.173Z,19.10
2018-04-13T07:49:34.459Z,19.50
2018-04-13T07:52:00.748Z,19.80
2018-04-13T07:54:27.030Z,20.10
2018-04-13T07:56:53.330Z,20.30
2018-04-13T07:59:19.622Z,20.30
2018-04-13T08:01:45.910Z,20.40
2018-04-13T08:04:12.279Z,20.40
2018-04-13T08:06:38.552Z,20.40
2018-04-13T08:09:05.574Z,20.30
2018-04-13T08:11:32.133Z,20.20
2018-04-13T08:13:58.100Z,20.20
2018-04-13T08:16:24.419Z,20.00
2018-04-13T08:18:50.731Z,19.90
2018-04-13T08:21:16.991Z,19.90
2018-04-13T08:23:43.261Z,19.70
2018-04-13T08:26:09.588Z,19.50
2018-04-13T08:28:35.860Z,19.60
2018-04-13T08:31:02.249Z,19.80
2018-04-13T08:33:28.521Z,20.10
2018-04-13T08:35:54.809Z,20.20
2018-04-13T08:38:21.112Z,20.60
2018-04-13T08:40:47.383Z,20.80
2018-04-13T08:43:15.377Z,20.80
2018-04-13T08:45:41.674Z,20.70
2018-04-13T08:48:07.969Z,21.00
2018-04-13T08:50:34.236Z,21.00
2018-04-13T08:53:01.342Z,20.60
2018-04-13T08:55:27.668Z,20.60
2018-04-13T08:57:53.958Z,20.40
2018-04-13T09:00:21.019Z,20.00
2018-04-13T09:02:47.303Z,20.00
2018-04-13T09:05:13.599Z,19.90
2018-04-13T09:07:39.949Z,19.90
2018-04-13T09:10:06.255Z,19.90
2018-04-13T09:12:32.581Z,19.90
2018-04-13T09:14:58.915Z,19.90
2018-04-13T09:17:25.236Z,20.00
2018-04-13T09:19:51.559Z,19.90
2018-04-13T09:22:18.572Z,19.90
2018-04-13T09:24:44.877Z,19.90
2018-04-13T09:27:11.178Z,19.80
2018-04-13T09:29:37.498Z,19.90
2018-04-13T09:32:04.542Z,20.50
2018-04-13T09:34:31.622Z,20.70
2018-04-13T09:36:57.903Z,20.70
2018-04-13T09:39:24.234Z,20.60
2018-04-13T09:41:50.542Z,20.80
2018-04-13T09:44:16.795Z,20.70
2018-04-13T09:46:43.058Z,20.40
2018-04-13T09:49:09.330Z,20.40
2018-04-13T09:51:35.652Z,20.30
2018-04-13T09:54:01.939Z,20.20
2018-04-13T09:56:28.946Z,19.90
2018-04-13T09:58:55.200Z,19.90
2018-04-13T10:01:22.232Z,20.10
2018-04-13T10:03:49.343Z,20.10
2018-04-13T10:06:15.617Z,20.10
2018-04-13T10:08:41.923Z,19.80
2018-04-13T10:11:08.197Z,19.80
2018-04-13T10:13:35.206Z,19.80
2018-04-13T10:16:01.484Z,19.80
2018-04-13T10:18:28.578Z,19.90
2018-04-13T10:20:55.719Z,19.90
2018-04-13T10:23:22.009Z,19.90
2018-04-13T10:25:49.013Z,19.80
2018-04-13T10:28:15.312Z,19.80
2018-04-13T10:30:41.616Z,19.70
2018-04-13T10:33:07.875Z,19.90
2018-04-13T10:35:34.151Z,20.10
2018-04-13T10:38:00.430Z,20.20
2018-04-13T10:40:26.764Z,20.80
2018-04-13T10:42:53.027Z,20.60
2018-04-13T10:45:19.321Z,21.10
2018-04-13T10:47:45.587Z,21.60
2018-04-13T10:50:11.860Z,21.80
2018-04-13T10:52:38.947Z,21.30
2018-04-13T10:55:05.243Z,21.30
2018-04-13T10:57:31.511Z,21.10
2018-04-13T10:59:57.817Z,21.00
2018-04-13T11:02:31.040Z,21.30
2018-04-13T11:04:57.349Z,21.30
2018-04-13T11:07:23.615Z,21.80
2018-04-13T11:09:49.969Z,22.10
2018-04-13T11:12:17.003Z,22.20
2018-04-13T11:14:43.280Z,22.20
2018-04-13T11:17:09.580Z,22.20
2018-04-13T11:19:36.626Z,22.50
2018-04-13T11:22:03.714Z,22.70
2018-04-13T11:24:30.035Z,22.60
2018-04-13T11:26:56.340Z,22.60
2018-04-13T11:29:23.362Z,22.60
2018-04-13T11:31:49.640Z,22.60
2018-04-13T11:34:15.943Z,23.10
2018-04-13T11:36:42.960Z,24.00
2018-04-13T11:39:10.002Z,24.60
2018-04-13T11:41:36.343Z,24.50
2018-04-13T11:44:02.657Z,25.30
2018-04-13T11:46:29.677Z,24.90
2018-04-13T11:48:55.978Z,24.80
2018-04-13T11:51:22.334Z,24.70
2018-04-13T11:53:49.575Z,25.80
2018-04-13T11:56:16.642Z,29.40
2018-04-13T11:58:42.930Z,29.30
2018-04-13T12:01:09.227Z,30.80
2018-04-13T12:03:35.481Z,32.00
2018-04-13T12:06:01.856Z,31.10
2018-04-13T12:08:28.174Z,29.00
2018-04-13T12:10:55.190Z,25.20
2018-04-13T12:13:21.492Z,25.20
2018-04-13T12:15:47.760Z,24.30
2018-04-13T12:18:14.095Z,23.30
2018-04-13T12:20:40.442Z,22.90
2018-04-13T12:23:07.471Z,22.20
2018-04-13T12:25:33.798Z,22.10
2018-04-13T12:28:00.822Z,21.40
2018-04-13T12:30:27.971Z,21.20
2018-04-13T12:32:54.275Z,21.20
2018-04-13T12:35:20.527Z,20.80
2018-04-13T12:37:46.822Z,20.40
2018-04-13T12:40:13.145Z,20.00
2018-04-13T12:42:40.163Z,18.50
2018-04-13T12:45:06.439Z,18.50
2018-04-13T12:47:32.717Z,18.60
2018-04-13T12:49:59.075Z,18.80
2018-04-13T12:52:25.279Z,19.10
2018-04-13T12:54:51.783Z,19.40
2018-04-13T12:57:17.869Z,19.80
2018-04-13T12:59:44.858Z,20.90
2018-04-13T13:02:11.148Z,20.90
2018-04-13T13:04:38.194Z,20.90
2018-04-13T13:07:05.268Z,20.60
2018-04-13T13:09:31.513Z,20.60
2018-04-13T13:11:57.754Z,21.10
2018-04-13T13:14:24.776Z,24.50
2018-04-13T13:16:51.063Z,24.40
2018-04-13T13:19:17.315Z,26.50
2018-04-13T13:21:44.311Z,28.60
2018-04-13T13:24:10.565Z,28.50
2018-04-13T13:26:36.860Z,31.00
2018-04-13T13:29:03.144Z,32.80
2018-04-13T13:31:30.253Z,35.80
2018-04-13T13:33:56.538Z,35.70
2018-04-13T13:36:23.021Z,36.30
2018-04-13T13:38:49.314Z,38.30
2018-04-13T13:41:15.608Z,36.20
2018-04-13T13:43:41.959Z,39.60
2018-04-13T13:46:09.000Z,37.60
2018-04-13T13:48:36.000Z,37.90
2018-04-13T13:51:02.276Z,37.80
2018-04-13T13:53:30.276Z,38.40
2018-04-13T13:55:56.625Z,38.40
2018-04-13T13:58:22.936Z,40.10
2018-04-13T14:00:49.196Z,41.80
2018-04-13T14:03:15.583Z,43.20
2018-04-13T14:05:42.662Z,43.00
2018-04-13T14:08:08.926Z,43.00
2018-04-13T14:10:35.189Z,42.40
2018-04-13T14:13:02.178Z,40.60
2018-04-13T14:15:28.453Z,40.60
2018-04-13T14:17:55.532Z,37.60
2018-04-13T14:20:21.849Z,37.60
2018-04-13T14:22:48.121Z,37.30
2018-04-13T14:25:14.409Z,36.60
2018-04-13T14:27:40.739Z,37.20
2018-04-13T14:30:07.011Z,37.10
2018-04-13T14:32:33.309Z,34.80
2018-04-13T14:34:59.610Z,33.40
2018-04-13T14:37:26.666Z,27.10
2018-04-13T14:39:53.849Z,26.20
2018-04-13T14:42:20.165Z,26.10
2018-04-13T14:44:46.494Z,25.50
2018-04-13T14:47:12.787Z,24.90
2018-04-13T14:49:39.072Z,24.30
2018-04-13T14:52:05.391Z,23.70
2018-04-13T14:54:31.700Z,22.70
2018-04-13T14:56:58.756Z,21.60
2018-04-13T14:59:25.833Z,21.50
2018-04-13T15:01:52.109Z,21.40
2018-04-13T15:04:18.390Z,21.30
2018-04-13T15:06:44.695Z,21.20
2018-04-13T15:09:11.741Z,20.90
2018-04-13T15:11:38.775Z,20.70
2018-04-13T15:14:05.778Z,20.60
2018-04-13T15:16:32.089Z,20.50
2018-04-13T15:18:58.375Z,20.30
2018-04-13T15:21:24.683Z,20.20
2018-04-13T15:23:50.989Z,20.20
2018-04-13T15:26:17.283Z,20.10
2018-04-13T15:28:44.356Z,19.90
2018-04-13T15:31:10.670Z,19.80
2018-04-13T15:33:37.721Z,19.60
2018-04-13T15:36:04.040Z,19.60
2018-04-13T15:38:31.058Z,19.70
2018-04-13T15:40:57.389Z,19.60
2018-04-13T15:43:23.683Z,19.50
2018-04-13T15:45:49.958Z,19.40
2018-04-13T15:48:16.215Z,19.30
2018-04-13T15:50:43.632Z,19.00
2018-04-13T15:53:09.928Z,18.90
2018-04-13T15:55:36.271Z,18.80
2018-04-13T15:58:02.632Z,18.70
2018-04-13T16:00:29.069Z,17.90
2018-04-13T16:02:55.405Z,17.70
2018-04-13T16:05:21.740Z,17.40
2018-04-13T16:07:48.021Z,17.00
2018-04-13T16:10:14.405Z,16.90
2018-04-13T16:12:41.464Z,16.60
2018-04-13T16:15:08.511Z,16.40
2018-04-13T16:17:35.535Z,16.10
2018-04-13T16:20:01.856Z,16.10
2018-04-13T16:22:28.203Z,16.10
2018-04-13T16:24:54.503Z,16.00
2018-04-13T16:27:20.796Z,16.00
2018-04-13T16:29:47.827Z,15.60
2018-04-13T16:32:14.869Z,15.60
2018-04-13T16:34:41.179Z,15.50
2018-04-13T16:37:07.505Z,15.50
2018-04-13T16:39:33.776Z,15.40
2018-04-13T16:42:00.820Z,15.20
2018-04-13T16:44:27.863Z,15.20
2018-04-13T16:46:54.883Z,15.30
2018-04-13T16:49:21.177Z,15.20
2018-04-13T16:51:47.506Z,15.30
2018-04-13T16:54:13.790Z,15.20
2018-04-13T16:56:40.097Z,15.20
2018-04-13T16:59:06.402Z,14.90
2018-04-13T17:01:32.760Z,14.90
2018-04-13T17:03:59.043Z,14.80
2018-04-13T17:06:25.320Z,14.70
2018-04-13T17:08:51.621Z,14.90
2018-04-13T17:11:17.908Z,14.80
2018-04-13T17:13:44.212Z,14.80
2018-04-13T17:16:10.645Z,14.80
2018-04-13T17:18:36.971Z,14.80
2018-04-13T17:21:04.206Z,14.70
2018-04-13T17:23:30.515Z,14.60
2018-04-13T17:25:56.836Z,14.70
2018-04-13T17:28:23.876Z,14.70
2018-04-13T17:30:50.927Z,14.60
2018-04-13T17:33:17.971Z,14.60
2018-04-13T17:35:45.046Z,14.60
2018-04-13T17:38:11.415Z,14.50
2018-04-13T17:40:37.726Z,14.50
2018-04-13T17:43:04.085Z,14.50
2018-04-13T17:45:30.397Z,14.40
2018-04-13T17:47:56.669Z,14.30
2018-04-13T17:50:23.691Z,14.30
2018-04-13T17:52:49.973Z,14.30
2018-04-13T17:55:16.294Z,14.30
2018-04-13T17:57:43.362Z,14.10
2018-04-13T18:00:09.678Z,14.10
2018-04-13T18:02:36.741Z,14.10
2018-04-13T18:05:03.075Z,14.10
2018-04-13T18:07:29.356Z,14.10
2018-04-13T18:09:55.684Z,14.10
2018-04-13T18:12:22.021Z,14.00
2018-04-13T18:14:48.348Z,13.90
2018-04-13T18:17:14.639Z,13.90
2018-04-13T18:19:40.970Z,13.80
2018-04-13T18:22:07.348Z,13.80
2018-04-13T18:24:33.602Z,13.80
2018-04-13T18:27:00.690Z,13.90
2018-04-13T18:29:27.060Z,13.80
2018-04-13T18:31:53.343Z,13.70
2018-04-13T18:34:19.638Z,13.60
2018-04-13T18:36:46.690Z,13.60
2018-04-13T18:39:13.694Z,13.60
2018-04-13T18:41:40.048Z,13.60
2018-04-13T18:44:06.416Z,13.60
2018-04-13T18:46:32.755Z,13.60
2018-04-13T18:48:59.055Z,13.40
2018-04-13T18:51:26.070Z,13.20
2018-04-13T18:53:52.341Z,13.20
2018-04-13T18:56:19.384Z,13.30
2018-04-13T18:58:46.497Z,13.30
2018-04-13T19:01:12.796Z,13.30
2018-04-13T19:03:39.129Z,13.30
2018-04-13T19:06:05.426Z,13.30
2018-04-13T19:08:32.502Z,13.10
2018-04-13T19:10:58.837Z,13.10
2018-04-13T19:13:25.157Z,13.10
2018-04-13T19:15:51.456Z,13.10
2018-04-13T19:18:17.763Z,13.10
2018-04-13T19:20:44.058Z,13.10
2018-04-13T19:23:10.381Z,13.10
2018-04-13T19:25:36.701Z,13.20
2018-04-13T19:28:03.758Z,13.20
2018-04-13T19:30:30.137Z,13.10
2018-04-13T19:32:56.433Z,13.20
2018-04-13T19:35:22.790Z,13.10
2018-04-13T19:37:49.085Z,13.10
2018-04-13T19:40:15.376Z,13.00
2018-04-13T19:42:41.695Z,12.90
2018-04-13T19:45:07.985Z,12.80
2018-04-13T19:47:34.272Z,12.80
2018-04-13T19:50:00.679Z,12.80
2018-04-13T19:52:27.029Z,12.80
2018-04-13T19:54:53.390Z,12.90
2018-04-13T19:57:20.462Z,12.90
2018-04-13T19:59:46.773Z,13.00
2018-04-13T20:02:13.107Z,12.90
2018-04-13T20:04:39.438Z,13.00
2018-04-13T20:07:05.733Z,13.00
2018-04-13T20:09:32.040Z,13.00
2018-04-13T20:11:58.398Z,13.00
2018-04-13T20:14:24.742Z,13.00
2018-04-13T20:16:51.776Z,13.00
2018-04-13T20:19:18.104Z,13.00
2018-04-13T20:21:44.541Z,12.90
2018-04-13T20:24:10.881Z,12.80
2018-04-13T20:26:37.993Z,12.80
2018-04-13T20:29:04.331Z,12.80
2018-04-13T20:31:30.758Z,12.70
2018-04-13T20:33:57.072Z,12.60
2018-04-13T20:36:23.340Z,12.50
2018-04-13T20:39:02.777Z,12.50
2018-04-13T20:44:39.743Z,12.40
2018-04-13T20:47:17.267Z,12.20
2018-04-13T20:49:45.488Z,12.10
2018-04-13T20:52:11.818Z,12.00
2018-04-13T20:54:38.122Z,12.10
2018-04-13T20:57:04.494Z,12.00
2018-04-13T20:59:30.833Z,11.90
2018-04-13T21:01:57.137Z,11.90
2018-04-13T21:04:24.240Z,11.80
2018-04-13T21:06:50.526Z,11.80
2018-04-13T21:09:16.818Z,11.80
2018-04-13T21:11:43.124Z,11.70
2018-04-13T21:14:09.453Z,11.70
2018-04-13T21:16:35.751Z,11.70
2018-04-13T21:19:02.051Z,11.60
2018-04-13T21:21:28.398Z,11.60
2018-04-13T21:23:56.375Z,11.60
2018-04-13T21:26:23.421Z,11.60
2018-04-13T21:28:49.724Z,11.50
2018-04-13T21:31:16.113Z,11.60
2018-04-13T21:33:42.406Z,11.60
2018-04-13T21:36:09.461Z,11.60
2018-04-13T21:38:36.508Z,11.60
2018-04-13T21:41:03.570Z,11.60
2018-04-13T21:43:29.880Z,11.60
2018-04-13T21:45:57.008Z,11.60
2018-04-13T21:48:23.306Z,11.60
2018-04-13T21:50:49.692Z,11.60
2018-04-13T21:53:16.743Z,11.70
2018-04-13T21:55:43.809Z,11.60
2018-04-13T21:58:10.845Z,11.60
2018-04-13T22:00:37.159Z,11.60
2018-04-13T22:03:03.496Z,11.60
2018-04-13T22:05:29.765Z,11.60
2018-04-13T22:07:56.044Z,11.60
2018-04-13T22:10:22.334Z,11.60
2018-04-13T22:13:07.347Z,11.60
2018-04-13T22:15:33.653Z,11.50
2018-04-13T22:17:59.938Z,11.50
2018-04-13T22:20:26.237Z,11.50
2018-04-13T22:22:52.516Z,11.40
2018-04-13T22:25:18.875Z,11.40
2018-04-13T22:27:45.156Z,11.40
2018-04-13T22:30:12.195Z,11.20
2018-04-13T22:32:39.224Z,11.20
2018-04-13T22:35:05.524Z,11.20
2018-04-13T22:37:31.852Z,11.10
2018-04-13T22:39:58.162Z,11.00
2018-04-13T22:42:24.464Z,11.10
2018-04-13T22:44:51.503Z,11.10
2018-04-13T22:47:18.543Z,11.10
2018-04-13T22:49:45.655Z,11.00
2018-04-13T22:52:12.801Z,11.00
2018-04-13T22:54:39.124Z,10.90
2018-04-13T22:57:05.444Z,10.80
2018-04-13T22:59:31.753Z,10.80
2018-04-13T23:01:58.780Z,10.80
2018-04-13T23:04:25.117Z,10.70
2018-04-13T23:06:52.156Z,10.80
2018-04-13T23:09:18.492Z,10.70
2018-04-13T23:11:44.797Z,10.70
2018-04-13T23:14:11.106Z,10.60
2018-04-13T23:16:37.431Z,10.60
2018-04-13T23:19:03.802Z,10.60
2018-04-13T23:21:30.081Z,10.60
2018-04-13T23:23:56.388Z,10.50
2018-04-13T23:26:23.435Z,10.40
2018-04-13T23:28:50.468Z,10.40
2018-04-13T23:31:16.766Z,10.30
2018-04-13T23:33:43.070Z,10.40
2018-04-13T23:36:09.369Z,10.30
2018-04-13T23:38:36.464Z,10.40
2018-04-13T23:41:03.497Z,10.40
2018-04-13T23:43:29.793Z,10.30
2018-04-13T23:45:56.095Z,10.30
2018-04-13T23:48:22.410Z,10.30
2018-04-13T23:50:49.799Z,10.30
2018-04-13T23:53:17.596Z,10.30
2018-04-13T23:55:44.657Z,10.30
2018-04-13T23:58:11.664Z,10.20
